createdAt,value
2019-05-12T00:02:02.086Z,60.93
2019-05-12T00:04:31.260Z,60.93
2019-05-12T00:07:00.445Z,60.76
2019-05-12T00:09:30.564Z,60.68
2019-05-12T00:11:59.736Z,61.27
2019-05-12T00:14:28.923Z,61.27
2019-05-12T00:16:58.226Z,61.49
2019-05-12T00:19:28.489Z,61.49
2019-05-12T00:21:58.747Z,61.26
2019-05-12T00:24:28.228Z,61.30
2019-05-12T00:26:59.057Z,61.36
2019-05-12T00:29:28.808Z,61.47
2019-05-12T00:31:58.155Z,61.47
2019-05-12T00:34:28.833Z,61.52
2019-05-12T00:36:58.278Z,61.52
2019-05-12T00:39:27.954Z,61.84
2019-05-12T00:41:58.718Z,61.99
2019-05-12T00:44:28.536Z,61.86
2019-05-12T00:46:57.847Z,62.19
2019-05-12T00:49:28.968Z,62.19
2019-05-12T00:51:58.677Z,62.62
2019-05-12T00:54:28.415Z,62.53
2019-05-12T00:56:58.537Z,62.72
2019-05-12T00:59:28.108Z,62.72
2019-05-12T01:01:58.725Z,63.09
2019-05-12T01:04:29.225Z,63.09
2019-05-12T01:06:58.593Z,62.84
2019-05-12T01:09:28.273Z,62.84
2019-05-12T01:11:58.778Z,63.01
2019-05-12T01:14:28.247Z,63.09
2019-05-12T01:16:57.827Z,63.00
2019-05-12T01:19:28.866Z,63.00
2019-05-12T01:21:58.729Z,62.85
2019-05-12T01:24:28.464Z,62.77
2019-05-12T01:26:58.331Z,62.52
2019-05-12T01:29:28.159Z,62.52
2019-05-12T01:31:59.125Z,63.06
2019-05-12T01:34:28.311Z,62.87
2019-05-12T01:36:59.142Z,62.84
2019-05-12T01:39:28.295Z,62.96
2019-05-12T01:41:58.720Z,62.30
2019-05-12T01:44:28.708Z,62.30
2019-05-12T01:46:58.000Z,62.42
2019-05-12T01:49:28.961Z,62.52
2019-05-12T01:51:58.313Z,62.76
2019-05-12T01:54:27.867Z,62.37
2019-05-12T01:56:58.670Z,61.95
2019-05-12T01:59:28.734Z,62.24
2019-05-12T02:01:58.257Z,62.19
2019-05-12T02:04:29.251Z,61.82
2019-05-12T02:07:00.054Z,61.93
2019-05-12T02:09:30.878Z,61.38
2019-05-12T02:12:00.056Z,61.62
2019-05-12T02:14:29.266Z,61.69
2019-05-12T02:16:58.444Z,61.28
2019-05-12T02:19:28.272Z,61.04
2019-05-12T02:21:57.977Z,61.12
2019-05-12T02:24:30.346Z,61.24
2019-05-12T02:26:58.198Z,61.39
2019-05-12T02:29:28.518Z,61.00
2019-05-12T02:31:58.990Z,61.00
2019-05-12T02:34:28.430Z,60.67
2019-05-12T02:36:57.600Z,60.96
2019-05-12T02:39:26.800Z,60.95
2019-05-12T02:41:55.977Z,61.08
2019-05-12T02:44:25.174Z,61.11
2019-05-12T02:46:55.287Z,61.00
2019-05-12T02:49:24.609Z,60.75
2019-05-12T02:51:54.715Z,60.76
2019-05-12T02:54:26.923Z,60.75
2019-05-12T02:56:56.528Z,60.89
2019-05-12T02:59:26.164Z,60.89
2019-05-12T03:01:58.704Z,60.97
2019-05-12T03:04:27.955Z,60.88
2019-05-12T03:06:57.134Z,60.96
2019-05-12T03:09:26.301Z,61.11
2019-05-12T03:11:57.003Z,61.23
2019-05-12T03:14:26.204Z,61.19
2019-05-12T03:16:55.376Z,61.10
2019-05-12T03:19:25.334Z,61.17
2019-05-12T03:21:54.897Z,61.43
2019-05-12T03:24:24.939Z,61.60
2019-05-12T03:26:55.457Z,61.72
2019-05-12T03:29:25.235Z,61.44
2019-05-12T03:31:56.970Z,61.35
2019-05-12T03:34:29.456Z,61.36
2019-05-12T03:36:58.786Z,61.36
2019-05-12T03:39:27.388Z,61.12
2019-05-12T03:41:56.558Z,61.11
2019-05-12T03:44:25.746Z,61.00
2019-05-12T03:46:54.948Z,60.75
2019-05-12T03:49:24.611Z,60.20
2019-05-12T03:51:54.420Z,60.16
2019-05-12T03:54:24.602Z,60.27
2019-05-12T03:56:55.643Z,60.35
2019-05-12T03:59:25.639Z,60.04
2019-05-12T04:01:55.289Z,59.83
2019-05-12T04:04:24.621Z,59.67
2019-05-12T04:06:54.470Z,59.40
2019-05-12T04:09:24.921Z,59.85
2019-05-12T04:11:54.853Z,59.93
2019-05-12T04:14:25.256Z,59.80
2019-05-12T04:16:55.200Z,59.85
2019-05-12T04:19:25.010Z,59.55
2019-05-12T04:21:54.792Z,59.55
2019-05-12T04:24:24.919Z,59.19
2019-05-12T04:26:55.305Z,59.19
2019-05-12T04:29:25.147Z,59.08
2019-05-12T04:31:54.593Z,58.99
2019-05-12T04:34:25.066Z,58.89
2019-05-12T04:36:55.506Z,58.93
2019-05-12T04:39:25.376Z,58.96
2019-05-12T04:41:55.251Z,59.33
2019-05-12T04:44:25.251Z,59.49
2019-05-12T04:46:55.368Z,60.06
2019-05-12T04:49:25.259Z,60.06
2019-05-12T04:51:54.728Z,59.77
2019-05-12T04:54:24.847Z,59.67
2019-05-12T04:56:55.135Z,59.57
2019-05-12T04:59:25.420Z,59.59
2019-05-12T05:01:54.835Z,59.59
2019-05-12T05:04:24.616Z,59.36
2019-05-12T05:06:55.038Z,59.26
2019-05-12T05:09:27.951Z,59.11
2019-05-12T05:11:57.127Z,59.04
2019-05-12T05:14:44.724Z,59.04
2019-05-12T05:17:34.792Z,59.20
2019-05-12T05:20:04.154Z,59.26
2019-05-12T05:22:33.506Z,59.85
2019-05-12T05:25:04.282Z,60.01
2019-05-12T05:27:34.144Z,60.01
2019-05-12T05:30:04.246Z,60.38
2019-05-12T05:32:34.003Z,60.42
2019-05-12T05:35:07.361Z,60.42
2019-05-12T05:37:36.953Z,60.11
2019-05-12T05:40:06.928Z,59.98
2019-05-12T05:42:36.104Z,59.75
2019-05-12T05:45:09.810Z,59.64
2019-05-12T05:47:38.006Z,59.20
2019-05-12T05:50:07.913Z,59.63
2019-05-12T05:52:38.703Z,60.03
2019-05-12T05:55:14.578Z,60.55
2019-05-12T05:57:39.498Z,60.95
2019-05-12T06:00:17.588Z,61.01
2019-05-12T06:02:40.714Z,61.64
2019-05-12T06:05:10.118Z,62.38
2019-05-12T06:07:39.523Z,63.33
2019-05-12T06:10:10.488Z,63.52
2019-05-12T06:12:40.376Z,64.17
2019-05-12T06:15:10.654Z,64.15
2019-05-12T06:17:39.829Z,64.26
2019-05-12T06:20:09.063Z,64.57
2019-05-12T06:22:38.268Z,65.27
2019-05-12T06:25:07.595Z,65.52
2019-05-12T06:27:36.795Z,64.84
2019-05-12T06:30:09.067Z,65.39
2019-05-12T06:32:41.160Z,65.39
2019-05-12T06:35:09.287Z,66.21
2019-05-12T06:37:38.485Z,65.83
2019-05-12T06:40:08.027Z,65.55
2019-05-12T06:42:37.223Z,63.28
2019-05-12T06:45:06.966Z,63.28
2019-05-12T06:47:39.254Z,63.73
2019-05-12T06:50:10.071Z,62.61
2019-05-12T06:52:46.788Z,62.61
2019-05-12T06:55:10.194Z,61.16
2019-05-12T06:57:40.171Z,61.16
2019-05-12T07:00:11.425Z,60.75
2019-05-12T07:02:50.003Z,59.30
2019-05-12T07:05:11.574Z,58.37
2019-05-12T07:07:45.927Z,56.68
2019-05-12T07:10:34.117Z,55.74
2019-05-12T07:12:55.943Z,55.83
2019-05-12T07:15:14.703Z,55.58
2019-05-12T07:17:55.745Z,55.58
2019-05-12T07:20:29.092Z,54.32
2019-05-12T07:22:55.974Z,52.59
2019-05-12T07:25:31.326Z,51.00
2019-05-12T07:28:00.380Z,52.48
2019-05-12T07:30:31.949Z,53.55
2019-05-12T07:33:01.386Z,55.72
2019-05-12T07:35:34.001Z,55.63
2019-05-12T07:38:04.775Z,53.63
2019-05-12T07:40:37.487Z,51.76
2019-05-12T07:43:10.096Z,48.72
2019-05-12T07:45:37.558Z,48.14
2019-05-12T07:48:10.218Z,47.22
2019-05-12T07:50:37.720Z,49.90
2019-05-12T07:53:06.960Z,51.42
2019-05-12T07:55:39.801Z,52.61
2019-05-12T07:58:13.669Z,52.28
2019-05-12T08:00:37.912Z,51.26
2019-05-12T08:03:15.960Z,51.26
2019-05-12T08:05:37.982Z,52.81
2019-05-12T08:08:10.942Z,53.20
2019-05-12T08:10:38.082Z,51.52
2019-05-12T08:13:07.254Z,52.66
2019-05-12T08:15:39.810Z,54.04
2019-05-12T08:18:08.191Z,55.75
2019-05-12T08:20:37.501Z,56.70
2019-05-12T08:23:10.304Z,59.41
2019-05-12T08:25:37.580Z,59.18
2019-05-12T08:28:18.195Z,59.18
2019-05-12T08:30:47.457Z,60.13
2019-05-12T08:33:09.901Z,59.83
2019-05-12T08:35:39.576Z,59.85
2019-05-12T08:38:08.749Z,58.48
2019-05-12T08:40:48.847Z,57.81
2019-05-12T08:43:10.677Z,57.81
2019-05-12T08:45:39.692Z,57.58
2019-05-12T08:48:15.500Z,57.44
2019-05-12T08:50:42.725Z,59.89
2019-05-12T08:53:12.277Z,60.14
2019-05-12T08:55:43.542Z,59.57
2019-05-12T08:58:29.698Z,59.57
2019-05-12T09:00:49.729Z,58.33
2019-05-12T09:03:20.428Z,58.33
2019-05-12T09:05:47.338Z,58.42
2019-05-12T09:08:16.648Z,58.61
2019-05-12T09:10:45.835Z,58.83
2019-05-12T09:13:15.032Z,59.15
2019-05-12T09:15:44.546Z,58.59
2019-05-12T09:18:18.779Z,57.20
2019-05-12T09:20:52.599Z,55.84
2019-05-12T09:23:17.436Z,56.93
2019-05-12T09:25:48.413Z,57.33
2019-05-12T09:28:17.701Z,58.74
2019-05-12T09:30:49.458Z,58.74
2019-05-12T09:33:21.588Z,58.42
2019-05-12T09:35:49.558Z,57.31
2019-05-12T09:38:24.058Z,60.31
2019-05-12T09:40:55.082Z,60.31
2019-05-12T09:43:23.996Z,61.67
2019-05-12T09:45:56.516Z,62.20
2019-05-12T09:48:24.691Z,62.99
2019-05-12T09:51:00.483Z,62.48
2019-05-12T09:53:25.856Z,62.88
2019-05-12T09:55:58.251Z,62.88
2019-05-12T09:58:27.942Z,62.95
2019-05-12T10:00:56.936Z,61.52
2019-05-12T10:03:26.133Z,61.05
2019-05-12T10:05:55.331Z,59.65
2019-05-12T10:08:29.308Z,59.48
2019-05-12T10:10:55.613Z,58.78
2019-05-12T10:13:28.123Z,58.13
2019-05-12T10:15:58.793Z,58.98
2019-05-12T10:18:26.672Z,58.80
2019-05-12T10:20:55.871Z,58.80
2019-05-12T10:23:27.448Z,56.22
2019-05-12T10:26:01.326Z,56.22
2019-05-12T10:28:28.729Z,56.54
2019-05-12T10:30:57.913Z,56.54
2019-05-12T10:33:27.147Z,56.81
2019-05-12T10:35:59.458Z,54.69
2019-05-12T10:38:27.335Z,54.69
2019-05-12T10:40:56.517Z,55.45
2019-05-12T10:43:25.699Z,54.92
2019-05-12T10:45:54.879Z,54.26
2019-05-12T10:48:24.134Z,53.31
2019-05-12T10:50:53.670Z,52.44
2019-05-12T10:53:23.508Z,52.44
2019-05-12T10:55:54.248Z,51.26
2019-05-12T10:58:24.897Z,51.16
2019-05-12T11:00:58.837Z,51.16
2019-05-12T11:03:25.456Z,49.42
2019-05-12T11:06:02.497Z,49.42
2019-05-12T11:08:25.616Z,49.31
2019-05-12T11:10:58.555Z,49.73
2019-05-12T11:13:25.764Z,49.83
2019-05-12T11:15:54.966Z,49.54
2019-05-12T11:18:30.323Z,49.20
2019-05-12T11:20:56.071Z,48.91
2019-05-12T11:23:25.250Z,49.84
2019-05-12T11:25:54.483Z,49.92
2019-05-12T11:28:24.485Z,49.88
2019-05-12T11:30:54.082Z,50.14
2019-05-12T11:33:23.812Z,49.27
2019-05-12T11:35:59.234Z,48.43
2019-05-12T11:38:28.388Z,48.42
2019-05-12T11:40:57.574Z,48.33
2019-05-12T11:43:29.748Z,48.58
2019-05-12T11:45:58.422Z,48.58
2019-05-12T11:48:27.687Z,48.44
2019-05-12T11:50:56.907Z,48.73
2019-05-12T11:53:31.202Z,49.26
2019-05-12T11:55:57.014Z,49.00
2019-05-12T11:58:26.263Z,48.36
2019-05-12T12:00:58.715Z,49.41
2019-05-12T12:03:30.850Z,48.71
2019-05-12T12:05:59.176Z,48.42
2019-05-12T12:08:33.720Z,48.01
2019-05-12T12:11:00.725Z,48.16
2019-05-12T12:13:30.199Z,47.41
2019-05-12T12:16:00.412Z,45.86
2019-05-12T12:18:30.510Z,45.63
2019-05-12T12:21:04.077Z,43.97
2019-05-12T12:23:30.653Z,43.97
2019-05-12T12:25:59.833Z,45.08
2019-05-12T12:28:29.014Z,45.08
2019-05-12T12:31:01.137Z,43.92
2019-05-12T12:33:31.086Z,43.92
2019-05-12T12:36:00.873Z,45.27
2019-05-12T12:38:30.144Z,46.09
2019-05-12T12:40:59.338Z,44.64
2019-05-12T12:43:28.532Z,44.32
2019-05-12T12:46:02.262Z,43.85
2019-05-12T12:48:33.356Z,44.87
2019-05-12T12:51:03.974Z,44.87
2019-05-12T12:53:34.347Z,44.17
2019-05-12T12:56:04.336Z,44.04
2019-05-12T12:58:34.528Z,44.33
2019-05-12T13:01:04.323Z,45.21
2019-05-12T13:03:34.158Z,46.45
2019-05-12T13:06:04.749Z,46.45
2019-05-12T13:08:34.396Z,46.08
2019-05-12T13:11:04.310Z,44.07
2019-05-12T13:13:33.866Z,44.79
2019-05-12T13:16:04.050Z,44.02
2019-05-12T13:18:36.208Z,43.48
2019-05-12T13:21:04.575Z,43.85
2019-05-12T13:23:40.513Z,44.32
2019-05-12T13:26:04.721Z,44.56
2019-05-12T13:28:34.266Z,44.94
2019-05-12T13:31:11.026Z,45.92
2019-05-12T13:33:34.823Z,46.54
2019-05-12T13:36:04.481Z,46.42
2019-05-12T13:38:36.398Z,47.07
2019-05-12T13:41:09.541Z,45.61
2019-05-12T13:43:35.653Z,47.48
2019-05-12T13:46:04.826Z,47.48
2019-05-12T13:48:34.082Z,46.37
2019-05-12T13:51:08.304Z,46.87
2019-05-12T13:53:34.148Z,47.36
2019-05-12T13:56:04.860Z,46.99
2019-05-12T13:58:42.270Z,46.82
2019-05-12T14:01:20.994Z,46.86
2019-05-12T14:03:39.915Z,46.86
2019-05-12T14:06:07.219Z,49.06
2019-05-12T14:08:36.405Z,49.38
2019-05-12T14:11:05.580Z,49.38
2019-05-12T14:13:34.797Z,49.48
2019-05-12T14:16:06.684Z,50.31
2019-05-12T14:18:36.288Z,50.31
2019-05-12T14:21:05.829Z,50.58
2019-05-12T14:23:35.002Z,50.72
2019-05-12T14:26:07.620Z,50.72
2019-05-12T14:28:39.344Z,49.58
2019-05-12T14:31:07.058Z,49.41
2019-05-12T14:33:39.259Z,49.68
2019-05-12T14:36:07.103Z,50.27
2019-05-12T14:38:36.288Z,49.83
2019-05-12T14:41:09.612Z,50.38
2019-05-12T14:43:36.498Z,50.74
2019-05-12T14:46:10.155Z,51.13
2019-05-12T14:48:40.237Z,50.98
2019-05-12T14:51:07.512Z,50.79
2019-05-12T14:53:38.780Z,50.48
2019-05-12T14:56:08.574Z,51.50
2019-05-12T14:58:37.763Z,50.72
2019-05-12T15:01:06.949Z,50.76
2019-05-12T15:03:36.124Z,50.50
2019-05-12T15:06:07.642Z,50.31
2019-05-12T15:08:40.224Z,50.21
2019-05-12T15:11:08.109Z,50.02
2019-05-12T15:13:37.296Z,50.32
2019-05-12T15:16:06.508Z,50.22
2019-05-12T15:18:39.644Z,50.44
2019-05-12T15:21:06.582Z,50.28
2019-05-12T15:23:37.400Z,50.96
2019-05-12T15:26:09.582Z,51.60
2019-05-12T15:28:37.604Z,52.23
2019-05-12T15:31:06.776Z,52.29
2019-05-12T15:33:36.013Z,52.83
2019-05-12T15:36:05.146Z,53.03
2019-05-12T15:38:34.412Z,53.34
2019-05-12T15:41:04.238Z,53.55
2019-05-12T15:43:35.772Z,54.38
2019-05-12T15:46:04.489Z,54.96
2019-05-12T15:48:34.266Z,54.84
2019-05-12T15:51:06.962Z,55.27
2019-05-12T15:53:35.906Z,55.74
2019-05-12T15:56:14.172Z,55.26
2019-05-12T15:58:37.254Z,55.77
2019-05-12T16:01:06.429Z,56.26
2019-05-12T16:03:40.779Z,56.44
2019-05-12T16:06:15.905Z,55.79
2019-05-12T16:08:45.087Z,54.49
2019-05-12T16:11:14.282Z,54.29
2019-05-12T16:13:44.920Z,54.92
2019-05-12T16:16:16.364Z,54.94
2019-05-12T16:18:50.436Z,55.12
2019-05-12T16:21:17.420Z,54.76
2019-05-12T16:23:46.596Z,54.82
2019-05-12T16:26:15.791Z,54.77
2019-05-12T16:28:54.003Z,55.53
2019-05-12T16:31:28.773Z,54.47
2019-05-12T16:34:01.203Z,53.30
2019-05-12T16:36:30.649Z,53.07
2019-05-12T16:39:00.312Z,53.99
2019-05-12T16:41:30.072Z,54.35
2019-05-12T16:43:59.426Z,55.01
2019-05-12T16:46:28.659Z,54.87
2019-05-12T16:48:57.839Z,54.89
2019-05-12T16:51:28.049Z,55.32
2019-05-12T16:53:57.224Z,56.17
2019-05-12T16:56:29.749Z,55.57
2019-05-12T16:58:58.309Z,55.83
2019-05-12T17:01:29.355Z,55.69
2019-05-12T17:03:58.346Z,54.16
2019-05-12T17:06:28.881Z,54.57
2019-05-12T17:08:58.715Z,55.23
2019-05-12T17:11:30.980Z,55.34
2019-05-12T17:14:02.260Z,55.43
2019-05-12T17:16:33.719Z,55.38
2019-05-12T17:19:06.205Z,54.84
2019-05-12T17:21:33.512Z,53.60
2019-05-12T17:24:04.016Z,53.70
2019-05-12T17:26:33.541Z,54.08
2019-05-12T17:29:02.728Z,54.35
2019-05-12T17:31:33.815Z,54.75
2019-05-12T17:34:06.406Z,55.25
2019-05-12T17:36:34.511Z,55.17
2019-05-12T17:39:06.559Z,54.41
2019-05-12T17:41:40.270Z,54.04
2019-05-12T17:44:06.783Z,53.65
2019-05-12T17:46:37.838Z,54.33
2019-05-12T17:49:07.801Z,55.14
2019-05-12T17:51:36.981Z,55.33
2019-05-12T17:54:07.054Z,55.88
2019-05-12T17:56:38.750Z,55.69
2019-05-12T17:59:07.986Z,55.95
2019-05-12T18:01:37.168Z,56.49
2019-05-12T18:04:06.366Z,55.63
2019-05-12T18:06:35.580Z,56.99
2019-05-12T18:09:09.286Z,56.99
2019-05-12T18:11:39.288Z,56.52
2019-05-12T18:14:08.532Z,56.17
2019-05-12T18:16:37.768Z,56.59
2019-05-12T18:19:08.960Z,56.83
2019-05-12T18:21:37.838Z,57.18
2019-05-12T18:24:11.054Z,56.74
2019-05-12T18:26:37.970Z,56.57
2019-05-12T18:29:08.101Z,56.20
2019-05-12T18:31:37.290Z,56.20
2019-05-12T18:34:06.482Z,56.47
2019-05-12T18:36:35.651Z,56.26
2019-05-12T18:39:11.755Z,56.26
2019-05-12T18:41:45.376Z,56.93
2019-05-12T18:44:24.732Z,57.23
2019-05-12T18:46:46.713Z,57.23
2019-05-12T18:49:16.852Z,57.41
2019-05-12T18:51:48.955Z,57.41
2019-05-12T18:54:17.152Z,57.46
2019-05-12T18:56:51.608Z,57.80
2019-05-12T18:59:17.417Z,57.80
2019-05-12T19:01:46.695Z,58.48
2019-05-12T19:04:15.870Z,58.29
2019-05-12T19:06:45.060Z,58.63
2019-05-12T19:09:14.545Z,58.93
2019-05-12T19:11:46.662Z,59.31
2019-05-12T19:14:14.627Z,59.45
2019-05-12T19:16:44.018Z,59.45
2019-05-12T19:19:18.317Z,59.31
2019-05-12T19:21:46.871Z,59.47
2019-05-12T19:24:19.777Z,59.65
2019-05-12T19:26:46.601Z,59.61
2019-05-12T19:29:18.289Z,59.98
2019-05-12T19:31:52.530Z,60.26
2019-05-12T19:34:22.754Z,60.50
2019-05-12T19:36:49.692Z,60.69
2019-05-12T19:39:18.849Z,60.88
2019-05-12T19:41:48.030Z,60.88
2019-05-12T19:44:19.976Z,61.27
2019-05-12T19:46:49.587Z,61.38
2019-05-12T19:49:20.120Z,61.59
2019-05-12T19:51:50.167Z,61.98
2019-05-12T19:54:24.645Z,61.98
2019-05-12T19:56:50.247Z,62.12
2019-05-12T19:59:19.436Z,62.53
2019-05-12T20:01:49.607Z,62.11
2019-05-12T20:04:30.911Z,62.09
2019-05-12T20:06:51.642Z,62.09
2019-05-12T20:09:20.853Z,62.72
2019-05-12T20:11:50.051Z,62.72
2019-05-12T20:14:21.392Z,62.81
2019-05-12T20:16:51.140Z,62.79
2019-05-12T20:19:25.308Z,62.82
2019-05-12T20:21:51.158Z,62.30
2019-05-12T20:24:23.554Z,62.41
2019-05-12T20:26:53.703Z,63.06
2019-05-12T20:29:33.295Z,62.78
2019-05-12T20:31:56.005Z,63.33
2019-05-12T20:34:25.190Z,63.33
2019-05-12T20:36:59.103Z,63.26
2019-05-12T20:39:25.268Z,63.19
2019-05-12T20:42:00.510Z,63.98
2019-05-12T20:44:25.361Z,63.98
2019-05-12T20:46:56.057Z,63.99
2019-05-12T20:49:25.439Z,63.99
2019-05-12T20:52:03.333Z,64.30
2019-05-12T20:54:25.502Z,64.30
2019-05-12T20:57:02.330Z,64.94
2019-05-12T20:59:28.079Z,65.29
2019-05-12T21:01:57.642Z,65.16
2019-05-12T21:04:31.278Z,65.17
2019-05-12T21:06:57.797Z,65.17
2019-05-12T21:09:26.976Z,65.27
2019-05-12T21:11:56.192Z,65.49
2019-05-12T21:14:25.371Z,65.77
2019-05-12T21:16:54.606Z,65.84
2019-05-12T21:19:29.276Z,65.69
2019-05-12T21:21:58.835Z,65.69
2019-05-12T21:24:29.416Z,65.58
2019-05-12T21:26:57.438Z,65.63
2019-05-12T21:29:29.866Z,65.75
2019-05-12T21:32:02.958Z,66.04
2019-05-12T21:34:29.349Z,66.01
2019-05-12T21:37:04.845Z,66.01
2019-05-12T21:39:33.447Z,66.15
2019-05-12T21:42:03.992Z,65.87
2019-05-12T21:44:33.312Z,65.87
2019-05-12T21:47:09.485Z,65.57
2019-05-12T21:49:33.386Z,65.57
2019-05-12T21:52:04.134Z,65.58
2019-05-12T21:54:37.770Z,67.13
2019-05-12T21:57:04.392Z,67.13
2019-05-12T21:59:39.628Z,67.20
2019-05-12T22:02:06.531Z,67.01
2019-05-12T22:04:41.391Z,66.84
2019-05-12T22:07:07.016Z,66.73
2019-05-12T22:09:41.447Z,66.73
2019-05-12T22:12:07.248Z,66.97
2019-05-12T22:14:40.745Z,66.97
2019-05-12T22:17:08.566Z,66.71
2019-05-12T22:19:38.314Z,67.13
2019-05-12T22:22:08.161Z,67.53
2019-05-12T22:24:38.974Z,67.90
2019-05-12T22:27:16.187Z,68.10
2019-05-12T22:29:39.173Z,68.58
2019-05-12T22:32:08.380Z,68.99
2019-05-12T22:34:42.006Z,69.10
2019-05-12T22:37:08.435Z,69.60
2019-05-12T22:39:37.604Z,69.60
2019-05-12T22:42:11.638Z,69.05
2019-05-12T22:44:37.732Z,69.20
2019-05-12T22:47:12.700Z,68.98
2019-05-12T22:49:37.797Z,68.89
2019-05-12T22:52:07.388Z,68.23
2019-05-12T22:54:40.460Z,67.90
2019-05-12T22:57:07.436Z,68.13
2019-05-12T22:59:40.318Z,67.96
2019-05-12T23:02:07.499Z,68.03
2019-05-12T23:04:43.976Z,68.22
2019-05-12T23:07:18.768Z,68.15
2019-05-12T23:09:44.152Z,67.80
2019-05-12T23:12:18.124Z,67.89
2019-05-12T23:14:44.493Z,67.12
2019-05-12T23:17:33.744Z,67.36
2019-05-12T23:20:04.756Z,67.36
2019-05-12T23:22:35.115Z,67.82
2019-05-12T23:25:11.365Z,68.31
2019-05-12T23:27:38.396Z,68.35
2019-05-12T23:30:11.181Z,68.14
2019-05-12T23:32:45.343Z,68.06
2019-05-12T23:35:10.509Z,67.33
2019-05-12T23:37:40.319Z,67.33
2019-05-12T23:40:11.380Z,67.34
2019-05-12T23:42:40.882Z,67.56
2019-05-12T23:45:10.796Z,67.94
2019-05-12T23:47:40.008Z,67.72
2019-05-12T23:50:09.490Z,67.73
2019-05-12T23:52:38.653Z,67.82
2019-05-12T23:55:07.983Z,67.98
2019-05-12T23:57:37.153Z,67.75
